createdAt,value
2018-05-23T00:02:25.257Z,28.63
2018-05-23T00:04:52.752Z,30.30
2018-05-23T00:07:20.222Z,28.90
2018-05-23T00:09:47.677Z,29.70
2018-05-23T00:12:15.163Z,29.40
2018-05-23T00:14:43.436Z,30.37
2018-05-23T00:17:10.904Z,31.43
2018-05-23T00:19:39.153Z,31.47
2018-05-23T00:22:06.612Z,32.23
2018-05-23T00:24:34.085Z,31.27
2018-05-23T00:27:02.341Z,33.10
2018-05-23T00:29:29.905Z,31.30
2018-05-23T00:31:57.368Z,30.67
2018-05-23T00:34:24.875Z,30.37
2018-05-23T00:36:52.337Z,30.70
2018-05-23T00:39:19.813Z,31.37
2018-05-23T00:41:47.289Z,31.50
2018-05-23T00:44:14.853Z,31.37
2018-05-23T00:46:42.360Z,32.63
2018-05-23T00:49:09.815Z,32.20
2018-05-23T00:51:37.284Z,35.50
2018-05-23T00:54:04.764Z,37.50
2018-05-23T00:56:32.221Z,37.27
2018-05-23T00:58:59.689Z,37.60
2018-05-23T01:01:27.180Z,35.50
2018-05-23T01:03:55.413Z,37.30
2018-05-23T01:06:22.886Z,38.13
2018-05-23T01:08:50.372Z,36.47
2018-05-23T01:11:17.842Z,38.53
2018-05-23T01:13:45.325Z,37.47
2018-05-23T01:16:12.785Z,37.13
2018-05-23T01:18:40.239Z,35.43
2018-05-23T01:21:07.827Z,36.47
2018-05-23T01:23:35.293Z,35.17
2018-05-23T01:26:03.526Z,34.87
2018-05-23T01:28:31.003Z,36.50
2018-05-23T01:30:58.466Z,37.73
2018-05-23T01:33:25.940Z,40.50
2018-05-23T01:35:54.198Z,38.70
2018-05-23T01:38:21.705Z,41.60
2018-05-23T01:40:49.165Z,41.50
2018-05-23T01:43:16.670Z,43.07
2018-05-23T01:45:44.138Z,43.80
2018-05-23T01:48:12.378Z,41.83
2018-05-23T01:50:39.863Z,41.90
2018-05-23T01:53:07.321Z,39.80
2018-05-23T01:55:34.793Z,41.80
2018-05-23T01:58:03.041Z,43.30
2018-05-23T02:00:30.501Z,43.77
2018-05-23T02:02:58.057Z,44.30
2018-05-23T02:05:25.537Z,44.20
2018-05-23T02:07:53.771Z,44.10
2018-05-23T02:10:21.253Z,44.50
2018-05-23T02:12:48.709Z,44.47
2018-05-23T02:15:16.184Z,45.40
2018-05-23T02:17:44.429Z,47.00
2018-05-23T02:20:11.889Z,43.80
2018-05-23T02:22:39.360Z,47.20
2018-05-23T02:25:07.613Z,45.57
2018-05-23T02:27:35.081Z,48.60
2018-05-23T02:30:02.540Z,49.97
2018-05-23T02:32:30.593Z,49.33
2018-05-23T02:34:58.058Z,47.83
2018-05-23T02:37:26.301Z,50.90
2018-05-23T02:39:53.784Z,49.43
2018-05-23T02:42:22.021Z,50.70
2018-05-23T02:44:49.493Z,48.93
2018-05-23T02:47:16.984Z,50.47
2018-05-23T02:49:44.446Z,51.00
2018-05-23T02:52:12.694Z,52.80
2018-05-23T02:54:40.172Z,54.93
2018-05-23T02:57:07.643Z,52.97
2018-05-23T02:59:35.885Z,54.50
2018-05-23T03:02:03.929Z,54.30
2018-05-23T03:04:31.388Z,56.40
2018-05-23T03:06:58.868Z,53.90
2018-05-23T03:09:26.345Z,53.90
2018-05-23T03:11:53.806Z,55.80
2018-05-23T03:14:22.050Z,57.30
2018-05-23T03:16:49.510Z,55.60
2018-05-23T03:19:16.972Z,57.90
2018-05-23T03:21:44.464Z,55.87
2018-05-23T03:24:12.696Z,55.77
2018-05-23T03:26:40.169Z,55.53
2018-05-23T03:29:07.643Z,55.40
2018-05-23T03:31:35.882Z,54.87
2018-05-23T03:34:03.349Z,57.90
2018-05-23T03:36:30.829Z,55.40
2018-05-23T03:38:59.061Z,56.83
2018-05-23T03:41:26.524Z,57.20
2018-05-23T03:43:54.017Z,55.87
2018-05-23T03:46:22.260Z,58.60
2018-05-23T03:48:49.729Z,57.13
2018-05-23T03:51:17.217Z,57.10
2018-05-23T03:53:45.441Z,59.30
2018-05-23T03:56:12.900Z,56.37
2018-05-23T03:58:40.394Z,61.83
2018-05-23T04:01:20.452Z,59.27
2018-05-23T04:04:00.720Z,57.20
2018-05-23T04:06:35.729Z,60.80
2018-05-23T04:09:03.215Z,57.07
2018-05-23T04:11:30.700Z,59.13
2018-05-23T04:13:58.164Z,58.50
2018-05-23T04:16:25.648Z,60.33
2018-05-23T04:18:53.970Z,60.40
2018-05-23T04:21:21.429Z,58.17
2018-05-23T04:23:48.909Z,57.33
2018-05-23T04:26:16.368Z,58.80
2018-05-23T04:28:43.832Z,56.70
2018-05-23T04:31:11.328Z,57.77
2018-05-23T04:33:39.560Z,59.50
2018-05-23T04:36:07.023Z,56.00
2018-05-23T04:38:34.497Z,57.30
2018-05-23T04:41:01.962Z,52.87
2018-05-23T04:43:29.460Z,52.80
2018-05-23T04:45:56.941Z,53.83
2018-05-23T04:48:24.416Z,52.90
2018-05-23T04:50:51.891Z,53.20
2018-05-23T04:53:20.158Z,51.03
2018-05-23T04:55:48.390Z,50.63
2018-05-23T04:58:15.857Z,51.60
2018-05-23T05:00:43.328Z,49.67
2018-05-23T05:03:10.805Z,51.03
2018-05-23T05:05:38.381Z,48.20
2018-05-23T05:08:06.613Z,46.53
2018-05-23T05:10:34.077Z,46.43
2018-05-23T05:13:01.572Z,43.53
2018-05-23T05:15:29.794Z,41.30
2018-05-23T05:17:57.352Z,43.43
2018-05-23T05:20:24.829Z,39.07
2018-05-23T05:22:52.293Z,38.57
2018-05-23T05:25:19.763Z,36.90
2018-05-23T05:27:48.016Z,35.67
2018-05-23T05:30:15.474Z,32.53
2018-05-23T05:32:42.970Z,31.77
2018-05-23T05:35:11.212Z,29.40
2018-05-23T05:37:38.693Z,30.77
2018-05-23T05:40:06.967Z,26.90
2018-05-23T05:42:35.143Z,26.30
2018-05-23T05:45:03.381Z,26.80
2018-05-23T05:47:30.840Z,26.23
2018-05-23T05:49:58.345Z,25.80
2018-05-23T05:52:25.813Z,24.67
2018-05-23T05:54:53.285Z,24.17
2018-05-23T05:57:20.760Z,24.50
2018-05-23T05:59:48.224Z,22.73
2018-05-23T06:02:15.688Z,26.27
2018-05-23T06:04:43.181Z,23.90
2018-05-23T06:07:10.650Z,24.10
2018-05-23T06:09:38.148Z,22.03
2018-05-23T06:12:05.617Z,20.23
2018-05-23T06:14:33.078Z,20.20
2018-05-23T06:17:00.572Z,21.40
2018-05-23T06:19:28.041Z,20.60
2018-05-23T06:21:55.524Z,20.00
2018-05-23T06:24:23.001Z,20.10
2018-05-23T06:26:50.474Z,21.37
2018-05-23T06:29:18.701Z,20.47
2018-05-23T06:31:46.184Z,19.77
2018-05-23T06:34:13.668Z,20.20
2018-05-23T06:36:41.913Z,19.30
2018-05-23T06:39:09.395Z,19.57
2018-05-23T06:41:37.644Z,21.00
2018-05-23T06:44:05.209Z,20.10
2018-05-23T06:46:32.697Z,20.27
2018-05-23T06:49:00.157Z,20.37
2018-05-23T06:51:27.621Z,19.97
2018-05-23T06:53:55.108Z,20.30
2018-05-23T06:56:22.561Z,20.07
2018-05-23T06:58:50.036Z,19.73
2018-05-23T07:01:17.513Z,20.47
2018-05-23T07:03:44.988Z,18.70
2018-05-23T07:06:13.228Z,19.43
2018-05-23T07:08:40.700Z,18.60
2018-05-23T07:11:09.021Z,19.57
2018-05-23T07:13:36.525Z,19.50
2018-05-23T07:16:03.990Z,19.23
2018-05-23T07:18:31.459Z,19.67
2018-05-23T07:20:59.713Z,19.17
2018-05-23T07:23:27.179Z,19.00
2018-05-23T07:25:54.694Z,18.93
2018-05-23T07:28:23.019Z,19.40
2018-05-23T07:30:51.284Z,19.77
2018-05-23T07:33:18.757Z,17.93
2018-05-23T07:35:47.016Z,17.60
2018-05-23T07:38:14.573Z,17.43
2018-05-23T07:40:42.049Z,17.30
2018-05-23T07:43:10.305Z,18.30
2018-05-23T07:45:37.765Z,17.47
2018-05-23T07:48:06.005Z,19.07
2018-05-23T07:50:33.493Z,18.13
2018-05-23T07:53:01.045Z,20.03
2018-05-23T07:55:28.608Z,20.00
2018-05-23T07:57:56.073Z,19.27
2018-05-23T08:00:24.304Z,20.63
2018-05-23T08:02:51.785Z,20.70
2018-05-23T08:05:19.258Z,20.60
2018-05-23T08:07:46.722Z,18.43
2018-05-23T08:10:14.996Z,19.50
2018-05-23T08:12:42.445Z,20.87
2018-05-23T08:15:09.930Z,21.33
2018-05-23T08:17:37.392Z,19.80
2018-05-23T08:20:04.872Z,20.67
2018-05-23T08:22:32.350Z,20.30
2018-05-23T08:24:59.820Z,19.37
2018-05-23T08:27:27.393Z,19.87
2018-05-23T08:29:55.650Z,19.13
2018-05-23T08:32:23.214Z,20.17
2018-05-23T08:34:50.689Z,20.03
2018-05-23T08:37:18.933Z,21.60
2018-05-23T08:39:46.409Z,21.80
2018-05-23T08:42:13.910Z,21.80
2018-05-23T08:44:41.372Z,21.23
2018-05-23T08:47:08.858Z,22.43
2018-05-23T08:49:36.345Z,22.67
2018-05-23T08:52:04.577Z,21.80
2018-05-23T08:54:32.048Z,20.13
2018-05-23T08:56:59.529Z,21.13
2018-05-23T08:59:27.762Z,22.23
2018-05-23T09:01:55.233Z,22.37
2018-05-23T09:04:22.712Z,20.40
2018-05-23T09:06:50.190Z,21.10
2018-05-23T09:09:18.412Z,21.63
2018-05-23T09:11:45.905Z,20.80
2018-05-23T09:14:14.135Z,22.17
2018-05-23T09:16:41.606Z,20.07
2018-05-23T09:19:09.083Z,19.80
2018-05-23T09:21:38.061Z,22.13
2018-05-23T09:24:05.533Z,22.13
2018-05-23T09:26:33.018Z,20.67
2018-05-23T09:29:01.054Z,19.30
2018-05-23T09:31:28.520Z,19.00
2018-05-23T09:33:56.014Z,19.33
2018-05-23T09:36:23.504Z,18.70
2018-05-23T09:38:50.961Z,21.60
2018-05-23T09:41:18.453Z,23.57
2018-05-23T09:43:47.414Z,22.60
2018-05-23T09:46:14.915Z,23.30
2018-05-23T09:48:43.158Z,20.50
2018-05-23T09:51:10.626Z,20.77
2018-05-23T09:53:38.088Z,21.93
2018-05-23T09:56:06.341Z,20.77
2018-05-23T09:58:33.800Z,20.10
2018-05-23T10:01:01.281Z,20.93
2018-05-23T10:03:29.528Z,21.07
2018-05-23T10:05:56.984Z,19.87
2018-05-23T10:08:24.481Z,20.90
2018-05-23T10:10:52.707Z,22.30
2018-05-23T10:13:20.181Z,22.80
2018-05-23T10:15:47.669Z,20.93
2018-05-23T10:18:15.904Z,20.33
2018-05-23T10:20:43.368Z,23.40
2018-05-23T10:23:10.860Z,20.90
2018-05-23T10:25:38.334Z,19.03
2018-05-23T10:28:05.800Z,18.00
2018-05-23T10:30:33.280Z,18.10
2018-05-23T10:33:00.751Z,19.93
2018-05-23T10:35:28.997Z,20.00
2018-05-23T10:37:56.471Z,19.40
2018-05-23T10:40:23.949Z,19.47
2018-05-23T10:42:51.913Z,20.90
2018-05-23T10:45:19.397Z,18.40
2018-05-23T10:47:46.868Z,16.17
2018-05-23T10:50:14.337Z,15.57
2018-05-23T10:52:41.814Z,13.70
2018-05-23T10:55:09.348Z,13.80
2018-05-23T10:57:36.822Z,12.63
2018-05-23T11:00:04.325Z,13.87
2018-05-23T11:02:31.777Z,13.80
2018-05-23T11:05:00.037Z,11.47
2018-05-23T11:07:27.509Z,11.27
2018-05-23T11:09:54.990Z,12.70
2018-05-23T11:12:22.464Z,11.40
2018-05-23T11:14:49.922Z,12.27
2018-05-23T11:17:17.400Z,11.63
2018-05-23T11:19:44.880Z,12.10
2018-05-23T11:22:12.345Z,11.20
2018-05-23T11:24:39.831Z,11.93
2018-05-23T11:27:07.297Z,11.40
2018-05-23T11:29:34.784Z,10.83
2018-05-23T11:32:02.296Z,10.67
2018-05-23T11:34:30.537Z,11.03
2018-05-23T11:36:58.000Z,9.53
2018-05-23T11:39:25.474Z,6.90
2018-05-23T11:41:53.705Z,6.03
2018-05-23T11:44:21.180Z,5.90
2018-05-23T11:46:48.656Z,5.17
2018-05-23T11:49:16.876Z,4.90
2018-05-23T11:51:44.332Z,3.83
2018-05-23T11:54:11.827Z,4.10
2018-05-23T11:56:39.305Z,3.20
2018-05-23T11:59:07.556Z,3.30
2018-05-23T12:01:35.046Z,3.53
2018-05-23T12:04:03.347Z,3.30
2018-05-23T12:06:30.806Z,3.73
2018-05-23T12:08:58.296Z,3.53
2018-05-23T12:11:25.752Z,3.00
2018-05-23T12:13:53.232Z,3.20
2018-05-23T12:16:21.489Z,3.30
2018-05-23T12:18:49.053Z,3.30
2018-05-23T12:21:16.517Z,3.70
2018-05-23T12:23:44.042Z,3.57
2018-05-23T12:26:12.225Z,2.80
2018-05-23T12:28:39.693Z,3.33
2018-05-23T12:31:07.181Z,3.50
2018-05-23T12:33:35.414Z,3.20
2018-05-23T12:36:02.876Z,3.13
2018-05-23T12:38:30.356Z,3.27
2018-05-23T12:40:58.595Z,3.20
2018-05-23T12:43:26.057Z,3.93
2018-05-23T12:45:53.537Z,3.80
2018-05-23T12:48:20.997Z,3.60
2018-05-23T12:50:49.225Z,3.40
2018-05-23T12:53:16.713Z,3.73
2018-05-23T12:55:44.285Z,3.57
2018-05-23T12:58:12.549Z,3.70
2018-05-23T13:00:40.050Z,4.00
2018-05-23T13:03:07.510Z,4.20
2018-05-23T13:05:34.976Z,4.27
2018-05-23T13:08:02.470Z,4.00
2018-05-23T13:10:29.942Z,4.33
2018-05-23T13:12:57.403Z,4.30
2018-05-23T13:15:25.657Z,3.90
2018-05-23T13:17:53.186Z,4.33
2018-05-23T13:20:20.592Z,4.23
2018-05-23T13:22:48.085Z,4.20
2018-05-23T13:25:15.561Z,4.03
2018-05-23T13:27:43.018Z,4.30
2018-05-23T13:30:10.504Z,4.40
2018-05-23T13:32:37.958Z,4.10
2018-05-23T13:35:05.470Z,4.60
2018-05-23T13:37:32.901Z,3.97
2018-05-23T13:40:01.125Z,4.70
2018-05-23T13:42:28.582Z,4.70
2018-05-23T13:44:56.082Z,4.70
2018-05-23T13:47:24.304Z,4.53
2018-05-23T13:49:51.775Z,4.80
2018-05-23T13:52:19.248Z,4.93
2018-05-23T13:54:46.838Z,4.23
2018-05-23T13:57:14.326Z,4.60
2018-05-23T13:59:41.793Z,5.37
2018-05-23T14:02:09.261Z,4.50
2018-05-23T14:04:36.729Z,4.40
2018-05-23T14:07:04.201Z,4.20
2018-05-23T14:09:31.680Z,4.30
2018-05-23T14:11:59.226Z,4.40
2018-05-23T14:14:27.505Z,4.30
2018-05-23T14:16:56.062Z,4.57
2018-05-23T14:19:23.611Z,4.50
2018-05-23T14:21:51.796Z,3.97
2018-05-23T14:24:19.270Z,4.83
2018-05-23T14:26:47.520Z,4.80
2018-05-23T14:29:14.977Z,4.50
2018-05-23T14:31:42.436Z,4.40
2018-05-23T14:34:09.920Z,4.70
2018-05-23T14:36:38.141Z,4.37
2018-05-23T14:39:05.626Z,4.27
2018-05-23T14:41:33.079Z,4.70
2018-05-23T14:44:00.540Z,5.23
2018-05-23T14:46:28.792Z,5.23
2018-05-23T14:48:57.068Z,4.93
2018-05-23T14:51:24.529Z,5.00
2018-05-23T14:53:52.012Z,4.70
2018-05-23T14:56:19.551Z,5.20
2018-05-23T14:58:46.972Z,8.20
2018-05-23T15:01:14.442Z,5.87
2018-05-23T15:03:41.908Z,6.30
2018-05-23T15:06:09.373Z,5.00
2018-05-23T15:08:36.899Z,5.50
2018-05-23T15:11:04.339Z,4.93
2018-05-23T15:13:31.790Z,5.40
2018-05-23T15:15:59.284Z,5.20
2018-05-23T15:18:26.749Z,4.90
2018-05-23T15:20:54.233Z,6.20
2018-05-23T15:23:22.482Z,5.30
2018-05-23T15:25:49.953Z,6.07
2018-05-23T15:28:17.413Z,5.80
2018-05-23T15:30:45.672Z,5.90
2018-05-23T15:33:13.123Z,5.50
2018-05-23T15:35:40.582Z,7.20
2018-05-23T15:38:08.069Z,5.90
2018-05-23T15:40:35.520Z,7.20
2018-05-23T15:43:03.753Z,6.67
2018-05-23T15:45:31.236Z,6.97
2018-05-23T15:47:59.470Z,6.90
2018-05-23T15:50:26.967Z,8.03
2018-05-23T15:52:54.436Z,7.10
2018-05-23T15:55:22.675Z,7.10
2018-05-23T15:57:50.149Z,7.53
2018-05-23T16:00:17.634Z,7.07
2018-05-23T16:02:45.097Z,7.63
2018-05-23T16:05:13.349Z,7.33
2018-05-23T16:07:40.831Z,7.40
2018-05-23T16:10:09.061Z,7.87
2018-05-23T16:12:36.542Z,7.87
2018-05-23T16:15:04.777Z,7.40
2018-05-23T16:17:32.272Z,6.97
2018-05-23T16:20:00.508Z,8.87
2018-05-23T16:22:27.974Z,8.33
2018-05-23T16:24:55.453Z,8.33
2018-05-23T16:27:22.917Z,8.40
2018-05-23T16:29:50.428Z,7.43
2018-05-23T16:32:17.918Z,7.73
2018-05-23T16:34:45.367Z,7.90
2018-05-23T16:37:12.842Z,7.97
2018-05-23T16:39:40.504Z,8.57
2018-05-23T16:42:07.978Z,8.13
2018-05-23T16:44:35.433Z,6.83
2018-05-23T16:47:03.689Z,9.87
2018-05-23T16:49:31.933Z,8.00
2018-05-23T16:51:59.404Z,8.20
2018-05-23T16:54:26.900Z,7.30
2018-05-23T16:56:55.119Z,7.70
2018-05-23T16:59:22.618Z,7.07
2018-05-23T17:01:50.285Z,7.27
2018-05-23T17:04:17.761Z,6.70
2018-05-23T17:06:46.010Z,6.87
2018-05-23T17:09:13.489Z,6.20
2018-05-23T17:11:41.721Z,5.90
2018-05-23T17:14:09.178Z,6.07
2018-05-23T17:16:37.545Z,6.53
2018-05-23T17:19:05.028Z,5.97
2018-05-23T17:21:32.486Z,4.90
2018-05-23T17:23:59.978Z,5.57
2018-05-23T17:26:27.446Z,6.17
2018-05-23T17:28:54.921Z,6.20
2018-05-23T17:31:22.621Z,6.13
2018-05-23T17:33:50.094Z,5.90
2018-05-23T17:36:18.317Z,5.33
2018-05-23T17:38:46.026Z,5.03
2018-05-23T17:41:14.264Z,5.30
2018-05-23T17:43:41.751Z,5.13
2018-05-23T17:46:09.211Z,4.87
2018-05-23T17:48:36.677Z,5.33
2018-05-23T17:51:04.920Z,5.23
2018-05-23T17:53:32.408Z,5.07
2018-05-23T17:56:00.637Z,5.00
2018-05-23T17:58:28.173Z,5.50
2018-05-23T18:00:55.661Z,4.90
2018-05-23T18:03:23.137Z,4.80
2018-05-23T18:05:50.886Z,4.37
2018-05-23T18:08:19.041Z,4.60
2018-05-23T18:10:46.521Z,5.17
2018-05-23T18:13:14.006Z,4.77
2018-05-23T18:15:42.225Z,4.70
2018-05-23T18:18:09.728Z,4.27
2018-05-23T18:20:37.970Z,4.57
2018-05-23T18:23:05.769Z,4.50
2018-05-23T18:25:34.010Z,3.90
2018-05-23T18:28:01.495Z,4.10
2018-05-23T18:30:29.826Z,4.70
2018-05-23T18:32:57.287Z,4.40
2018-05-23T18:35:24.747Z,4.50
2018-05-23T18:37:52.455Z,4.50
2018-05-23T18:40:20.682Z,3.83
2018-05-23T18:42:48.152Z,4.90
2018-05-23T18:45:15.653Z,4.23
2018-05-23T18:47:43.118Z,4.50
2018-05-23T18:50:10.585Z,4.03
2018-05-23T18:52:38.308Z,4.23
2018-05-23T18:55:06.542Z,4.50
2018-05-23T18:57:34.002Z,4.80
2018-05-23T19:00:01.509Z,4.60
2018-05-23T19:02:29.744Z,4.70
2018-05-23T19:04:57.224Z,4.57
2018-05-23T19:07:24.886Z,4.43
2018-05-23T19:09:52.366Z,4.30
2018-05-23T19:12:20.622Z,4.80
2018-05-23T19:14:48.297Z,4.07
2018-05-23T19:17:16.541Z,4.53
2018-05-23T19:19:44.024Z,4.10
2018-05-23T19:22:11.503Z,4.47
2018-05-23T19:24:38.964Z,4.77
2018-05-23T19:27:06.441Z,4.83
2018-05-23T19:29:33.921Z,4.33
2018-05-23T19:32:01.397Z,4.37
2018-05-23T19:34:28.865Z,4.20
2018-05-23T19:36:57.133Z,3.83
2018-05-23T19:39:24.594Z,4.10
2018-05-23T19:41:52.825Z,3.80
2018-05-23T19:44:20.515Z,4.17
2018-05-23T19:46:47.975Z,4.27
2018-05-23T19:49:15.441Z,4.23
2018-05-23T19:51:43.917Z,3.70
2018-05-23T19:54:11.376Z,5.00
2018-05-23T19:56:39.666Z,4.33
2018-05-23T19:59:07.309Z,4.40
2018-05-23T20:01:35.556Z,4.10
2018-05-23T20:04:03.017Z,4.27
2018-05-23T20:06:30.504Z,4.10
2018-05-23T20:08:58.736Z,3.70
2018-05-23T20:11:26.198Z,4.97
2018-05-23T20:13:53.968Z,4.20
2018-05-23T20:16:21.373Z,4.50
2018-05-23T20:18:48.858Z,4.07
2018-05-23T20:21:16.321Z,3.73
2018-05-23T20:23:43.784Z,3.67
2018-05-23T20:26:11.493Z,4.00
2018-05-23T20:28:39.726Z,3.90
2018-05-23T20:31:07.173Z,3.90
2018-05-23T20:33:34.783Z,4.17
2018-05-23T20:36:03.026Z,3.60
2018-05-23T20:38:30.474Z,4.50
2018-05-23T20:40:57.949Z,4.20
2018-05-23T20:43:25.412Z,4.27
2018-05-23T20:45:53.644Z,3.70
2018-05-23T20:48:21.324Z,3.93
2018-05-23T20:50:48.848Z,4.10
2018-05-23T20:53:16.311Z,4.80
2018-05-23T20:55:43.788Z,4.10
2018-05-23T20:58:11.271Z,4.27
2018-05-23T21:00:38.725Z,4.33
2018-05-23T21:03:06.424Z,4.97
2018-05-23T21:05:33.899Z,5.33
2018-05-23T21:08:01.386Z,5.10
2018-05-23T21:10:29.073Z,4.90
2018-05-23T21:12:57.302Z,4.50
2018-05-23T21:15:24.762Z,5.03
2018-05-23T21:17:52.445Z,4.60
2018-05-23T21:20:19.912Z,4.93
2018-05-23T21:22:47.380Z,4.80
2018-05-23T21:25:15.716Z,5.30
2018-05-23T21:27:43.121Z,4.70
2018-05-23T21:30:11.345Z,4.43
2018-05-23T21:32:38.827Z,4.47
2018-05-23T21:35:06.290Z,4.00
2018-05-23T21:37:33.772Z,4.27
2018-05-23T21:40:02.224Z,4.30
2018-05-23T21:42:29.681Z,4.27
2018-05-23T21:44:57.148Z,4.40
2018-05-23T21:47:25.504Z,4.23
2018-05-23T21:49:52.961Z,4.33
2018-05-23T21:52:20.432Z,4.40
2018-05-23T21:54:47.921Z,3.90
2018-05-23T21:57:15.387Z,4.57
2018-05-23T21:59:43.113Z,4.50
2018-05-23T22:02:11.341Z,4.17
2018-05-23T22:04:38.805Z,4.57
2018-05-23T22:07:06.286Z,4.50
2018-05-23T22:09:33.748Z,4.37
2018-05-23T22:12:01.241Z,4.20
2018-05-23T22:14:28.761Z,4.60
2018-05-23T22:16:56.229Z,4.53
2018-05-23T22:19:24.466Z,4.20
2018-05-23T22:21:51.929Z,4.70
2018-05-23T22:24:19.389Z,4.77
2018-05-23T22:26:47.075Z,4.70
2018-05-23T22:29:15.312Z,4.30
2018-05-23T22:31:42.776Z,4.30
2018-05-23T22:34:10.272Z,4.23
2018-05-23T22:36:38.501Z,4.33
2018-05-23T22:39:05.967Z,4.37
2018-05-23T22:41:33.645Z,4.40
2018-05-23T22:44:01.109Z,5.63
2018-05-23T22:46:29.344Z,5.13
2018-05-23T22:48:57.033Z,4.33
2018-05-23T22:51:24.490Z,4.47
2018-05-23T22:53:51.949Z,4.57
2018-05-23T22:56:19.416Z,4.43
2018-05-23T22:58:47.644Z,4.20
2018-05-23T23:01:15.115Z,4.30
2018-05-23T23:03:42.585Z,4.30
2018-05-23T23:06:10.050Z,4.40
2018-05-23T23:08:37.510Z,4.53
2018-05-23T23:11:04.989Z,4.03
2018-05-23T23:13:33.209Z,4.20
2018-05-23T23:16:00.680Z,4.40
2018-05-23T23:18:28.406Z,4.00
2018-05-23T23:20:55.855Z,4.33
2018-05-23T23:23:23.324Z,3.87
2018-05-23T23:25:50.806Z,4.20
2018-05-23T23:28:18.265Z,4.20
2018-05-23T23:30:45.729Z,4.30
2018-05-23T23:33:13.401Z,4.27
2018-05-23T23:35:42.376Z,4.37
2018-05-23T23:38:09.825Z,3.73
2018-05-23T23:40:37.461Z,4.10
2018-05-23T23:43:04.957Z,4.00
2018-05-23T23:45:32.419Z,3.40
2018-05-23T23:48:00.077Z,3.80
2018-05-23T23:50:27.557Z,4.33
2018-05-23T23:52:55.793Z,4.10
2018-05-23T23:55:23.473Z,4.13
2018-05-23T23:57:50.928Z,3.70
